Time;durP1;ratioP1;P1;durP2;ratioP2;P2;SDS_P1;SDS_P2;PMS_P1;PMS_P2;Temp;Humidity;BMP_temperature;BMP_pressure;BME280_temperature;BME280_humidity;BME280_pressure;Samples;Min_cycle;Max_cycle;Signal;HPM_P1;HPM_P2
2022/12/09 00:04:09;;;;;;;26.13;13.02;;;;;;;-144.32;100.00;68061.97;10442759;28;20064;-81
2022/12/09 00:09:14;;;;;;;24.25;13.43;;;;;;;-144.32;100.00;68061.97;10413019;28;20056;-81
2022/12/09 00:14:17;;;;;;;22.15;12.15;;;;;;;-144.32;100.00;68061.97;10419074;28;20132;-82
2022/12/09 00:19:18;;;;;;;24.00;12.35;;;;;;;-144.32;100.00;68061.97;10416420;28;20056;-83
2022/12/09 00:24:18;;;;;;;22.27;13.38;;;;;;;-144.32;100.00;68061.97;10428333;28;20146;-81
2022/12/09 00:29:21;;;;;;;24.10;13.13;;;;;;;-144.32;100.00;68061.97;10428629;28;20136;-82
2022/12/09 00:34:22;;;;;;;24.08;13.40;;;;;;;-144.32;100.00;68061.97;10425718;28;20169;-82
2022/12/09 00:39:23;;;;;;;20.75;11.95;;;;;;;-144.32;100.00;68061.97;10416303;28;20053;-79
2022/12/09 00:44:24;;;;;;;18.17;11.30;;;;;;;-144.32;100.00;68061.97;10424074;28;20049;-81
2022/12/09 00:49:25;;;;;;;20.13;12.13;;;;;;;-144.32;100.00;68061.97;10428759;28;20052;-82
2022/12/09 00:54:26;;;;;;;23.08;12.23;;;;;;;-144.32;100.00;68061.97;10440579;28;20045;-80
2022/12/09 00:59:27;;;;;;;23.90;13.02;;;;;;;-144.32;100.00;68061.97;10459551;28;20033;-79
2022/12/09 01:04:27;;;;;;;21.10;11.77;;;;;;;-144.32;100.00;68061.97;10457451;28;20045;-79
2022/12/09 01:09:28;;;;;;;22.25;12.18;;;;;;;-144.32;100.00;68061.97;10454713;28;20045;-84
2022/12/09 01:14:29;;;;;;;21.23;12.32;;;;;;;-144.32;100.00;68061.97;10424967;28;20488;-82
2022/12/09 01:19:29;;;;;;;24.40;12.82;;;;;;;-144.32;100.00;68061.97;10427083;28;20099;-82
2022/12/09 01:24:31;;;;;;;20.40;11.73;;;;;;;-144.32;100.00;68061.97;10415452;28;20133;-84
2022/12/09 01:29:31;;;;;;;24.02;13.55;;;;;;;-144.32;100.00;68061.97;10433679;28;20101;-81
2022/12/09 01:34:32;;;;;;;23.88;13.07;;;;;;;-144.32;100.00;68061.97;10470488;28;20116;-79
2022/12/09 01:39:32;;;;;;;22.98;11.73;;;;;;;-144.32;100.00;68061.97;10472309;28;20159;-78
2022/12/09 01:44:33;;;;;;;25.08;13.45;;;;;;;-144.32;100.00;68061.97;10479805;28;20045;-78
2022/12/09 01:49:40;;;;;;;25.50;13.73;;;;;;;-144.32;100.00;68061.97;10445202;28;20114;-82
2022/12/09 01:54:43;;;;;;;21.98;12.45;;;;;;;-144.32;100.00;68061.97;10425903;28;20122;-80
2022/12/09 01:59:44;;;;;;;;;;;;;;;-144.32;100.00;68061.97;10405118;28;20080;-80
2022/12/09 02:04:51;;;;;;;23.42;13.90;;;;;;;-144.32;100.00;68061.97;10414213;28;20293;-81
2022/12/09 02:09:53;;;;;;;22.27;12.75;;;;;;;-144.32;100.00;68061.97;10407540;28;20422;-78
2022/12/09 02:15:13;;;;;;;25.67;14.35;;;;;;;-144.32;100.00;68061.97;10440891;28;20468;-81
2022/12/09 02:20:22;;;;;;;28.92;14.32;;;;;;;-144.32;100.00;68061.97;10392760;28;20045;-80
2022/12/09 02:25:48;;;;;;;26.70;14.63;;;;;;;-144.32;100.00;68061.97;10415448;28;20105;-80
2022/12/09 02:31:00;;;;;;;29.20;14.90;;;;;;;-144.32;100.00;68061.97;10421388;28;20032;-81
2022/12/09 02:36:11;;;;;;;31.98;17.90;;;;;;;-144.32;100.00;68061.97;10425772;28;20151;-81
2022/12/09 02:41:17;;;;;;;35.40;17.55;;;;;;;-144.32;100.00;68061.97;10424212;28;20045;-80
2022/12/09 02:46:22;;;;;;;29.73;16.73;;;;;;;-144.32;100.00;68061.97;10416443;28;20045;-81
2022/12/09 02:51:27;;;;;;;29.53;16.13;;;;;;;-144.32;100.00;68061.97;10419428;28;20097;-79
2022/12/09 02:56:30;;;;;;;29.15;16.00;;;;;;;-144.32;100.00;68061.97;10415086;28;20053;-80
2022/12/09 03:01:40;;;;;;;31.63;16.73;;;;;;;-144.32;100.00;68061.97;10409892;28;20117;-81
2022/12/09 03:06:49;;;;;;;26.05;15.05;;;;;;;-144.32;100.00;68061.97;10426315;28;20049;-80
2022/12/09 03:11:51;;;;;;;29.30;15.75;;;;;;;-144.32;100.00;68061.97;10436700;28;20124;-79
2022/12/09 03:17:12;;;;;;;31.38;16.52;;;;;;;-144.32;100.00;68061.97;10467383;28;20042;-82
2022/12/09 03:22:19;;;;;;;;;;;;;;;-144.32;100.00;68061.97;10478527;28;20037;-78
2022/12/09 03:27:41;;;;;;;30.83;17.13;;;;;;;-144.32;100.00;68061.97;10477421;28;19909;-77
2022/12/09 03:32:44;;;;;;;29.10;15.30;;;;;;;-144.32;100.00;68061.97;10479064;28;20040;-80
2022/12/09 03:37:47;;;;;;;28.13;16.25;;;;;;;-144.32;100.00;68061.97;10651595;22;20057;-86
2022/12/09 03:42:55;;;;;;;29.07;16.10;;;;;;;-144.32;100.00;68061.97;10560416;22;20029;-80
2022/12/09 03:48:11;;;;;;;29.70;15.05;;;;;;;-144.32;100.00;68061.97;10437118;28;20049;-82
2022/12/09 03:53:17;;;;;;;28.77;15.40;;;;;;;-144.32;100.00;68061.97;10454741;28;20245;-78
2022/12/09 03:58:18;;;;;;;34.92;16.88;;;;;;;-144.32;100.00;68061.97;10482464;28;20033;-82
2022/12/09 04:03:21;;;;;;;30.48;16.30;;;;;;;-144.32;100.00;68061.97;10480787;28;20041;-80
2022/12/09 04:08:23;;;;;;;28.40;14.45;;;;;;;-144.32;100.00;68061.97;10462786;28;20133;-89
2022/12/09 04:13:23;;;;;;;29.67;15.25;;;;;;;-144.32;100.00;68061.97;10470082;28;20029;-79
2022/12/09 04:18:25;;;;;;;36.97;18.75;;;;;;;-144.32;100.00;68061.97;10480417;28;20076;-81
2022/12/09 04:23:25;;;;;;;32.97;16.58;;;;;;;-144.32;100.00;68061.97;10487792;28;20029;-80
2022/12/09 04:28:27;;;;;;;32.97;16.08;;;;;;;-144.32;100.00;68061.97;10484209;28;20040;-77
2022/12/09 04:33:28;;;;;;;29.88;15.23;;;;;;;-144.32;100.00;68061.97;10466723;28;20045;-80
2022/12/09 04:38:29;;;;;;;33.15;16.40;;;;;;;-144.32;100.00;68061.97;10428906;28;20045;-80
2022/12/09 04:43:35;;;;;;;33.22;17.00;;;;;;;-144.32;100.00;68061.97;10435372;28;20045;-81
2022/12/09 04:48:36;;;;;;;34.00;16.83;;;;;;;-144.32;100.00;68061.97;10454427;28;20021;-77
2022/12/09 04:53:37;;;;;;;36.35;18.65;;;;;;;-144.32;100.00;68061.97;10488741;28;20124;-77
2022/12/09 04:58:38;;;;;;;35.25;17.27;;;;;;;-144.32;100.00;68061.97;10487062;28;20021;-79
2022/12/09 05:03:39;;;;;;;32.83;17.45;;;;;;;-144.32;100.00;68061.97;10474974;28;20061;-82
2022/12/09 05:08:40;;;;;;;32.90;17.48;;;;;;;-144.32;100.00;68061.97;10465171;28;20065;-85
2022/12/09 05:13:40;;;;;;;28.83;16.52;;;;;;;-144.32;100.00;68061.97;10441715;28;20029;-83
2022/12/09 05:18:42;;;;;;;32.22;16.55;;;;;;;-144.32;100.00;68061.97;10465718;28;20045;-82
2022/12/09 05:23:42;;;;;;;34.42;17.35;;;;;;;-144.32;100.00;68061.97;10482167;28;20041;-79
2022/12/09 05:28:43;;;;;;;32.38;16.83;;;;;;;-144.32;100.00;68061.97;10457303;28;20053;-82
2022/12/09 05:33:45;;;;;;;28.95;15.90;;;;;;;-144.32;100.00;68061.97;10435440;28;20045;-78
2022/12/09 05:38:46;;;;;;;30.17;16.40;;;;;;;-144.32;100.00;68061.97;10429169;28;20047;-78
2022/12/09 05:43:49;;;;;;;30.92;15.75;;;;;;;-144.32;100.00;68061.97;10405251;28;20831;-81
2022/12/09 05:48:51;;;;;;;28.27;15.65;;;;;;;-144.32;100.00;68061.97;10474565;28;20025;-78
2022/12/09 05:53:56;;;;;;;31.55;15.02;;;;;;;-144.32;100.00;68061.97;10491220;28;20087;-78
2022/12/09 05:58:57;;;;;;;28.45;15.73;;;;;;;-144.32;100.00;68061.97;10484642;28;20032;-78
2022/12/09 06:03:58;;;;;;;29.10;15.32;;;;;;;-144.32;100.00;68061.97;10459975;28;20052;-79
2022/12/09 06:09:00;;;;;;;35.03;16.88;;;;;;;-144.32;100.00;68061.97;10436840;28;20064;-81
2022/12/09 06:14:03;;;;;;;32.40;16.55;;;;;;;-144.32;100.00;68061.97;10447240;28;20595;-79
2022/12/09 06:19:04;;;;;;;30.73;15.73;;;;;;;-144.32;100.00;68061.97;10439632;28;20576;-80
2022/12/09 06:24:09;;;;;;;32.22;16.60;;;;;;;-144.32;100.00;68061.97;10433669;28;20381;-83
2022/12/09 06:29:09;;;;;;;31.83;16.42;;;;;;;-144.32;100.00;68061.97;10429157;28;20060;-82
2022/12/09 06:34:10;;;;;;;31.67;17.17;;;;;;;-144.32;100.00;68061.97;10431778;28;20124;-83
2022/12/09 06:39:11;;;;;;;32.75;16.10;;;;;;;-144.32;100.00;68061.97;10458248;28;20040;-85
2022/12/09 06:44:13;;;;;;;31.58;17.10;;;;;;;-144.32;100.00;68061.97;10445123;28;20113;-84
2022/12/09 06:49:14;;;;;;;30.05;15.32;;;;;;;-144.32;100.00;68061.97;10442173;28;20045;-82
2022/12/09 06:54:15;;;;;;;30.85;16.90;;;;;;;-144.32;100.00;68061.97;10455132;28;20452;-78
2022/12/09 06:59:19;;;;;;;27.73;15.77;;;;;;;-144.32;100.00;68061.97;10466574;28;20086;-80
2022/12/09 07:04:20;;;;;;;31.10;16.13;;;;;;;-144.32;100.00;68061.97;10474770;28;20075;-77
2022/12/09 07:09:20;;;;;;;28.17;14.57;;;;;;;-144.32;100.00;68061.97;10478818;28;20041;-80
2022/12/09 07:14:22;;;;;;;30.65;15.30;;;;;;;-144.32;100.00;68061.97;10443663;28;20054;-81
2022/12/09 07:19:23;;;;;;;33.80;17.90;;;;;;;-144.32;100.00;68061.97;10443874;28;20033;-80
2022/12/09 07:24:24;;;;;;;31.58;16.85;;;;;;;-144.32;100.00;68061.97;10448945;28;20033;-83
2022/12/09 07:29:25;;;;;;;29.65;15.13;;;;;;;-144.32;100.00;68061.97;10433809;28;20048;-85
2022/12/09 07:34:25;;;;;;;31.63;15.70;;;;;;;-144.32;100.00;68061.97;10460382;28;20400;-78
2022/12/09 07:39:26;;;;;;;28.98;15.65;;;;;;;-144.32;100.00;68061.97;10447039;28;20051;-79
2022/12/09 07:44:28;;;;;;;28.65;15.02;;;;;;;-144.32;100.00;68061.97;10451084;28;20056;-80
2022/12/09 07:49:28;;;;;;;26.05;13.57;;;;;;;-144.32;100.00;68061.97;10460829;28;20087;-81
2022/12/09 07:54:29;;;;;;;28.95;14.35;;;;;;;-144.32;100.00;68061.97;10463011;28;20040;-79
2022/12/09 07:59:29;;;;;;;33.20;17.38;;;;;;;-144.32;100.00;68061.97;10449480;28;20041;-79
2022/12/09 08:04:30;;;;;;;31.63;16.95;;;;;;;-144.32;100.00;68061.97;10467958;28;20048;-76
2022/12/09 08:09:31;;;;;;;30.92;16.15;;;;;;;-144.32;100.00;68061.97;10498362;28;20055;-78
2022/12/09 08:14:31;;;;;;;26.65;15.05;;;;;;;-144.32;100.00;68061.97;10493061;28;20032;-76
2022/12/09 08:19:32;;;;;;;30.55;16.33;;;;;;;-144.32;100.00;68061.97;10465523;28;20052;-78
2022/12/09 08:24:35;;;;;;;28.48;14.85;;;;;;;-144.32;100.00;68061.97;10431927;28;20059;-78
2022/12/09 08:29:36;;;;;;;25.88;14.48;;;;;;;-144.32;100.00;68061.97;10443865;28;20059;-77
2022/12/09 08:34:37;;;;;;;31.30;14.07;;;;;;;-144.32;100.00;68061.97;10435550;28;20505;-77
2022/12/09 08:39:37;;;;;;;28.73;15.13;;;;;;;-144.32;100.00;68061.97;10425608;28;20397;-80
2022/12/09 08:44:38;;;;;;;28.02;14.50;;;;;;;-144.32;100.00;68061.97;10431340;28;20042;-78
2022/12/09 08:49:39;;;;;;;30.98;15.93;;;;;;;-144.32;100.00;68061.97;10436068;28;20049;-80
2022/12/09 08:54:39;;;;;;;27.67;15.32;;;;;;;-144.32;100.00;68061.97;10436185;28;20049;-79
2022/12/09 08:59:40;;;;;;;25.92;15.23;;;;;;;-144.32;100.00;68061.97;10435357;28;20092;-78
2022/12/09 09:04:40;;;;;;;29.40;14.95;;;;;;;-144.32;100.00;68061.97;10462219;28;20094;-78
2022/12/09 09:09:41;;;;;;;27.35;14.55;;;;;;;-144.32;100.00;68061.97;10465400;28;20253;-79
2022/12/09 09:14:41;;;;;;;30.92;15.30;;;;;;;-144.32;100.00;68061.97;10469285;28;20486;-78
2022/12/09 09:19:42;;;;;;;26.90;14.10;;;;;;;-144.32;100.00;68061.97;10437714;28;20049;-77
2022/12/09 09:24:43;;;;;;;28.67;15.32;;;;;;;-144.32;100.00;68061.97;10411611;28;20532;-77
2022/12/09 09:29:43;;;;;;;29.83;14.45;;;;;;;-144.32;100.00;68061.97;10440880;28;20090;-78
2022/12/09 09:34:44;;;;;;;27.60;15.68;;;;;;;-144.32;100.00;68061.97;10436066;28;20041;-79
2022/12/09 09:39:45;;;;;;;26.55;14.60;;;;;;;-144.32;100.00;68061.97;10430385;28;20049;-77
2022/12/09 09:44:49;;;;;;;24.92;14.65;;;;;;;-144.32;100.00;68061.97;10430340;28;20041;-77
2022/12/09 09:50:18;;;;;;;29.80;15.30;;;;;;;-144.32;100.00;68061.97;10437434;28;20091;-76
2022/12/09 09:55:32;;;;;;;28.50;14.52;;;;;;;-144.32;100.00;68061.97;10424734;28;20091;-79
2022/12/09 10:00:46;;;;;;;25.95;14.57;;;;;;;-144.32;100.00;68061.97;10431908;28;20047;-76
2022/12/09 10:05:57;;;;;;;26.45;14.18;;;;;;;-144.32;100.00;68061.97;10430640;28;20508;-76
2022/12/09 10:11:15;;;;;;;29.77;14.73;;;;;;;-144.32;100.00;68061.97;10433510;28;20048;-75
2022/12/09 10:16:25;;;;;;;29.33;15.52;;;;;;;-144.32;100.00;68061.97;10430183;28;20037;-76
2022/12/09 10:21:27;;;;;;;24.13;14.15;;;;;;;-144.32;100.00;68061.97;10428408;28;20045;-78
2022/12/09 10:26:30;;;;;;;27.17;15.63;;;;;;;-144.32;100.00;68061.97;10431849;28;20442;-75
2022/12/09 10:31:30;;;;;;;28.95;15.52;;;;;;;-144.32;100.00;68061.97;10434164;28;20485;-77
2022/12/09 10:36:32;;;;;;;26.98;14.93;;;;;;;-144.32;100.00;68061.97;10431056;28;20069;-76
2022/12/09 10:47:24;;;;;;;26.92;13.40;;;;;;;-144.32;100.00;68061.97;10436881;28;20048;-76
2022/12/09 10:52:29;;;;;;;25.33;14.23;;;;;;;-144.32;100.00;68061.97;10430161;28;20489;-77
2022/12/09 10:57:30;;;;;;;26.02;14.50;;;;;;;-144.32;100.00;68061.97;10442418;28;20114;-77
2022/12/09 11:02:32;;;;;;;20.77;13.30;;;;;;;-144.32;100.00;68061.97;10436759;28;20037;-76
2022/12/09 11:07:35;;;;;;;23.58;13.57;;;;;;;-144.32;100.00;68061.97;10438017;28;20103;-78
2022/12/09 11:12:37;;;;;;;21.85;12.00;;;;;;;-144.32;100.00;68061.97;10437590;28;20516;-77
2022/12/09 11:17:54;;;;;;;17.20;9.80;;;;;;;-144.32;100.00;68061.97;10458823;28;20097;-77
2022/12/09 11:23:04;;;;;;;14.73;8.98;;;;;;;-144.32;100.00;68061.97;10477801;28;20385;-77
2022/12/09 11:28:15;;;;;;;16.83;9.25;;;;;;;-144.32;100.00;68061.97;10467362;28;20122;-76
2022/12/09 11:33:39;;;;;;;14.90;9.45;;;;;;;-144.32;100.00;68061.97;10435859;28;20064;-78
2022/12/09 11:38:43;;;;;;;15.13;10.00;;;;;;;-144.32;100.00;68061.97;10433743;28;20049;-78
2022/12/09 11:43:54;;;;;;;17.25;9.38;;;;;;;-144.32;100.00;68061.97;10447916;28;20497;-78
2022/12/09 11:49:05;;;;;;;12.70;7.68;;;;;;;-144.32;100.00;68061.97;10444213;28;20405;-77
2022/12/09 11:54:12;;;;;;;14.73;8.10;;;;;;;-144.32;100.00;68061.97;10455141;28;20053;-79
2022/12/09 11:59:25;;;;;;;13.70;8.30;;;;;;;-144.32;100.00;68061.97;10439770;28;20413;-78
2022/12/09 12:04:34;;;;;;;17.60;10.37;;;;;;;-144.32;100.00;68061.97;10448278;28;20433;-79
2022/12/09 12:09:42;;;;;;;21.45;11.32;;;;;;;-144.32;100.00;68061.97;10448321;28;20045;-79
2022/12/09 12:14:43;;;;;;;18.30;10.60;;;;;;;-144.32;100.00;68061.97;10445251;28;20183;-81
2022/12/09 12:19:48;;;;;;;17.42;10.02;;;;;;;-144.32;100.00;68061.97;10449839;28;20134;-80
2022/12/09 12:25:02;;;;;;;14.48;10.30;;;;;;;-97.48;100.00;92986.66;10427051;28;20507;-79
2022/12/09 12:30:07;;;;;;;;;;;;;;;-144.32;100.00;76967.25;10445378;28;20056;-81
2022/12/09 12:35:49;;;;;;;16.08;9.63;;;;;;;5.00;100.00;98339.31;10443515;28;19925;-82
2022/12/09 12:41:20;;;;;;;15.93;9.68;;;;;;;6.80;94.45;97040.88;10431725;28;20079;-78
2022/12/09 12:46:46;;;;;;;13.73;9.32;;;;;;;6.98;93.48;97022.81;10415752;28;20085;-78
2022/12/09 12:52:15;;;;;;;13.70;8.40;;;;;;;6.36;88.90;97013.81;10448945;28;20049;-77
2022/12/09 12:57:41;;;;;;;14.38;8.05;;;;;;;6.45;86.24;97017.19;10450388;28;20444;-80
2022/12/09 13:02:48;;;;;;;11.27;6.97;;;;;;;6.06;85.29;97017.66;10451607;28;20048;-77
2022/12/09 13:07:57;;;;;;;10.50;6.85;;;;;;;6.08;88.66;97023.44;10449930;28;20083;-79
2022/12/09 13:13:00;;;;;;;10.95;7.20;;;;;;;6.11;90.10;97014.78;10450085;28;20041;-77
2022/12/09 13:18:06;;;;;;;12.25;7.03;;;;;;;;;;10440146;28;20048;-77
2022/12/09 13:23:27;;;;;;;11.13;6.78;;;;;;;5.93;84.59;97003.47;10439334;28;20045;-78
2022/12/09 13:28:49;;;;;;;16.65;9.18;;;;;;;6.08;90.35;96999.44;10446034;28;20053;-78
2022/12/09 13:34:02;;;;;;;16.50;9.32;;;;;;;5.83;100.00;97004.59;10448142;28;20068;-78
2022/12/09 13:39:03;;;;;;;14.85;9.05;;;;;;;5.83;100.00;97004.59;10442069;28;20045;-79
2022/12/09 13:44:09;;;;;;;14.98;9.77;;;;;;;5.83;100.00;97004.59;10444443;28;20049;-78
2022/12/09 13:49:18;;;;;;;15.80;9.40;;;;;;;5.74;100.00;97008.41;10437288;28;20079;-78
2022/12/09 13:54:26;;;;;;;16.08;9.68;;;;;;;5.63;100.00;97011.44;10434206;28;20040;-79
2022/12/09 13:59:39;;;;;;;14.25;8.68;;;;;;;5.38;100.00;96991.81;10440164;28;20056;-80
2022/12/09 14:04:59;;;;;;;15.85;8.68;;;;;;;5.21;100.00;97007.88;10442303;28;20048;-81
2022/12/09 14:10:01;;;;;;;15.85;9.05;;;;;;;5.52;100.00;97015.56;10440752;28;20047;-80
2022/12/09 14:15:23;;;;;;;15.98;9.23;;;;;;;5.17;100.00;97025.56;10439751;28;20048;-78
2022/12/09 14:20:28;;;;;;;14.38;8.52;;;;;;;5.27;100.00;97027.88;10432224;28;20053;-79
2022/12/09 14:25:32;;;;;;;14.90;9.27;;;;;;;5.27;100.00;97027.88;10447258;28;20037;-81
2022/12/09 14:30:32;;;;;;;17.17;9.70;;;;;;;5.27;100.00;97027.88;10469689;28;20105;-78
2022/12/09 14:35:49;;;;;;;14.70;9.13;;;;;;;5.27;100.00;97027.88;10488213;28;20040;-77
2022/12/09 14:41:33;;;;;;;17.77;10.07;;;;;;;5.27;100.00;97027.88;10480763;28;20036;-77
2022/12/09 14:46:38;;;;;;;15.38;9.23;;;;;;;5.27;100.00;97027.88;10374656;28;20094;-78
2022/12/09 14:51:56;;;;;;;16.58;8.68;;;;;;;5.31;100.00;97052.75;10438942;28;20105;-79
2022/12/09 14:56:58;;;;;;;15.32;9.23;;;;;;;5.07;100.00;97057.81;10445025;28;20098;-78
2022/12/09 15:02:02;;;;;;;16.33;9.30;;;;;;;5.07;100.00;97057.81;10445077;28;20056;-78
2022/12/09 15:07:10;;;;;;;20.05;10.63;;;;;;;5.07;100.00;97057.81;10448851;28;20171;-77
2022/12/09 15:12:11;;;;;;;15.98;9.43;;;;;;;4.92;100.00;97047.69;10450529;28;20129;-79
2022/12/09 15:17:25;;;;;;;18.15;9.48;;;;;;;4.72;100.00;97060.53;10470608;28;20139;-78
2022/12/09 15:22:29;;;;;;;15.82;10.50;;;;;;;4.65;100.00;97049.59;10461749;28;20029;-80
2022/12/09 15:27:30;;;;;;;17.15;9.85;;;;;;;4.65;100.00;97049.59;10481028;28;20056;-78
2022/12/09 15:32:31;;;;;;;16.10;9.50;;;;;;;4.52;100.00;97051.31;10434980;28;20068;-79
2022/12/09 15:37:31;;;;;;;19.75;10.90;;;;;;;4.52;100.00;97051.31;10425729;28;20919;-78
2022/12/09 15:42:34;;;;;;;24.13;11.73;;;;;;;4.52;100.00;97051.31;10442369;28;20133;-79
2022/12/09 15:47:44;;;;;;;19.83;10.40;;;;;;;4.52;100.00;97051.31;10439931;28;20041;-79
2022/12/09 15:53:23;;;;;;;20.60;10.68;;;;;;;4.52;100.00;97051.31;10444475;28;20059;-78
2022/12/09 15:58:33;;;;;;;19.17;10.95;;;;;;;4.52;100.00;97051.31;10431905;28;20048;-77
2022/12/09 16:03:35;;;;;;;20.10;11.65;;;;;;;4.52;100.00;97051.31;10438884;28;20389;-79
2022/12/09 16:08:39;;;;;;;19.60;11.25;;;;;;;4.52;100.00;97051.31;10436253;28;20045;-79
2022/12/09 16:13:59;;;;;;;21.77;11.70;;;;;;;4.52;100.00;97051.31;10441946;28;20045;-80
2022/12/09 16:19:00;;;;;;;19.90;11.43;;;;;;;4.52;100.00;97051.31;10443141;28;20052;-78
2022/12/09 16:24:10;;;;;;;19.38;12.23;;;;;;;4.52;100.00;97051.31;10437514;28;20044;-79
2022/12/09 16:29:35;;;;;;;18.85;11.07;;;;;;;-144.32;100.00;76029.13;10440640;28;20404;-80
2022/12/09 16:34:36;;;;;;;23.55;12.60;;;;;;;4.52;100.00;97051.31;10446020;28;20488;-78
2022/12/09 16:39:37;;;;;;;21.73;11.60;;;;;;;-144.32;100.00;76029.13;10421659;28;20195;-78
2022/12/09 16:44:39;;;;;;;20.20;12.23;;;;;;;4.52;100.00;97051.31;10433396;28;20049;-77
2022/12/09 16:49:44;;;;;;;18.88;11.63;;;;;;;4.52;100.00;97051.31;10441326;28;20041;-79
2022/12/09 16:54:46;;;;;;;17.83;11.10;;;;;;;4.52;100.00;97051.31;10432592;28;20392;-77
2022/12/09 16:59:46;;;;;;;19.33;11.40;;;;;;;-144.32;100.00;76029.13;10435913;28;20082;-76
2022/12/09 17:04:49;;;;;;;22.13;11.90;;;;;;;4.52;100.00;97051.31;10440004;28;20546;-79
2022/12/09 17:09:50;;;;;;;24.35;13.73;;;;;;;3.32;100.00;97078.38;10435248;28;20029;-79
2022/12/09 17:14:52;;;;;;;21.85;12.93;;;;;;;3.32;100.00;97078.38;10440455;28;20179;-83
2022/12/09 17:19:52;;;;;;;20.50;12.77;;;;;;;3.03;100.00;97084.94;10436910;28;20045;-79
2022/12/09 17:24:55;;;;;;;20.85;12.73;;;;;;;3.03;100.00;97084.94;10436878;28;20057;-80
2022/12/09 17:29:55;;;;;;;19.07;12.20;;;;;;;-144.32;100.00;76232.34;10437133;28;20029;-81
2022/12/09 17:34:56;;;;;;;23.98;13.18;;;;;;;;;;10456001;28;21187;-80
2022/12/09 17:39:57;;;;;;;20.38;11.75;;;;;;;-144.32;100.00;76232.34;10471017;28;20034;-77
2022/12/09 17:45:00;;;;;;;22.73;12.30;;;;;;;-144.32;100.00;76232.34;10484764;28;20112;-77
2022/12/09 17:50:00;;;;;;;20.70;11.63;;;;;;;-144.32;85.08;68061.97;10484904;28;20059;-77
2022/12/09 17:55:01;;;;;;;20.15;12.43;;;;;;;-144.32;100.00;76232.34;10445080;28;20049;-80
2022/12/09 18:00:03;;;;;;;21.98;12.27;;;;;;;-144.32;100.00;76232.34;10434538;28;20091;-80
2022/12/09 18:05:12;;;;;;;16.60;10.25;;;;;;;-144.32;100.00;76232.34;10435243;28;20053;-80
2022/12/09 18:10:13;;;;;;;22.17;12.27;;;;;;;-144.32;100.00;76232.34;10423050;28;20497;-80
2022/12/09 18:15:14;;;;;;;22.88;12.38;;;;;;;-144.32;100.00;76232.34;10430281;28;20037;-83
2022/12/09 18:20:14;;;;;;;23.00;13.73;;;;;;;3.03;100.00;97084.94;10453814;28;20116;-81
2022/12/09 18:25:15;;;;;;;24.35;13.05;;;;;;;3.03;100.00;97084.94;10434803;28;20118;-79
2022/12/09 18:30:19;;;;;;;23.83;13.25;;;;;;;-144.32;85.08;195388.09;10440358;28;20045;-80
2022/12/09 18:35:19;;;;;;;21.20;12.25;;;;;;;-144.32;85.41;68061.97;10450787;28;20062;-79
2022/12/09 18:40:20;;;;;;;20.90;12.43;;;;;;;-144.32;100.00;68061.97;10451830;28;20045;-77
2022/12/09 18:45:21;;;;;;;23.00;12.70;;;;;;;3.03;100.00;97084.94;10449533;28;20045;-82
2022/12/09 18:50:21;;;;;;;21.98;12.73;;;;;;;-144.32;100.00;68061.97;10442487;28;20049;-81
2022/12/09 18:55:22;;;;;;;24.40;13.77;;;;;;;-144.32;100.00;68061.97;10438250;28;20046;-78
2022/12/09 19:00:22;;;;;;;24.85;13.82;;;;;;;-144.32;100.00;68061.97;10434837;28;20052;-81
2022/12/09 19:05:25;;;;;;;26.33;14.60;;;;;;;-144.32;100.00;68061.97;10448137;28;20045;-84
2022/12/09 19:10:25;;;;;;;26.65;15.02;;;;;;;-144.32;100.00;55683.06;10458356;28;20115;-79
2022/12/09 19:15:26;;;;;;;24.70;14.05;;;;;;;-144.32;100.00;68061.97;10442303;28;20041;-79
2022/12/09 19:20:27;;;;;;;28.85;15.52;;;;;;;-144.32;100.00;68061.97;10444400;28;20124;-77
2022/12/09 19:25:28;;;;;;;26.63;15.85;;;;;;;-144.32;100.00;68061.97;10453840;28;20115;-79
2022/12/09 19:30:28;;;;;;;28.35;16.63;;;;;;;-144.32;100.00;68061.97;10452141;28;20056;-78
2022/12/09 19:35:29;;;;;;;27.02;14.95;;;;;;;-144.32;100.00;68061.97;10434871;28;20416;-78
2022/12/09 19:40:29;;;;;;;27.13;15.73;;;;;;;-144.32;100.00;68061.97;10442061;28;20049;-81
2022/12/09 19:45:31;;;;;;;29.80;16.60;;;;;;;-144.32;100.00;68061.97;10443926;28;20120;-77
2022/12/09 19:50:34;;;;;;;26.75;16.05;;;;;;;-144.32;100.00;68061.97;10446685;28;20048;-79
2022/12/09 19:55:34;;;;;;;26.70;16.47;;;;;;;-144.32;100.00;68061.97;10447287;28;20676;-79
2022/12/09 20:00:36;;;;;;;26.83;15.20;;;;;;;-144.32;100.00;68061.97;10447737;28;20041;-79
2022/12/09 20:05:45;;;;;;;31.48;17.48;;;;;;;-144.32;100.00;68061.97;10432588;28;20049;-80
2022/12/09 20:10:46;;;;;;;33.72;17.70;;;;;;;-144.32;100.00;68061.97;10462720;28;20028;-80
2022/12/09 20:15:47;;;;;;;31.55;18.42;;;;;;;-144.32;100.00;68061.97;10458858;28;20672;-81
2022/12/09 20:20:47;;;;;;;34.83;18.58;;;;;;;-144.32;100.00;68061.97;10459913;28;20075;-81
2022/12/09 20:25:48;;;;;;;32.33;18.08;;;;;;;-144.32;100.00;68061.97;10451402;28;20071;-81
2022/12/09 20:30:50;;;;;;;31.70;18.35;;;;;;;-144.32;100.00;68061.97;10449893;28;20037;-79
2022/12/09 20:35:50;;;;;;;32.90;18.50;;;;;;;-144.32;100.00;68061.97;10451524;28;20488;-80
2022/12/09 20:40:51;;;;;;;28.67;17.65;;;;;;;-144.32;100.00;68061.97;10439965;28;20045;-78
2022/12/09 20:45:51;;;;;;;34.80;18.75;;;;;;;-144.32;100.00;68061.97;10451647;28;20285;-80
2022/12/09 20:50:52;;;;;;;32.17;19.33;;;;;;;-144.32;100.00;68061.97;10466816;28;20053;-79
2022/12/09 20:55:56;;;;;;;33.65;18.60;;;;;;;-144.32;100.00;68061.97;10493379;28;20041;-80
2022/12/09 21:01:07;;;;;;;33.60;17.92;;;;;;;-144.32;100.00;68061.97;10484464;28;20025;-77
2022/12/09 21:06:09;;;;;;;32.22;18.45;;;;;;;-144.32;100.00;68061.97;10487321;28;20033;-81
2022/12/09 21:11:13;;;;;;;33.70;18.83;;;;;;;-144.32;100.00;68061.97;10477474;28;20120;-87
2022/12/09 21:16:19;;;;;;;33.80;20.25;;;;;;;-144.32;100.00;68061.97;10443522;28;20149;-84
2022/12/09 21:21:21;;;;;;;28.45;17.70;;;;;;;-144.32;100.00;68061.97;10465954;28;20075;-79
2022/12/09 21:26:23;;;;;;;34.47;19.98;;;;;;;-144.32;100.00;68061.97;10482906;28;20072;-80
2022/12/09 21:31:26;;;;;;;32.07;17.77;;;;;;;-144.32;100.00;68061.97;10484628;28;20120;-83
2022/12/09 21:36:34;;;;;;;31.88;19.48;;;;;;;-144.32;100.00;68061.97;10455829;28;20040;-83
2022/12/09 21:41:35;;;;;;;30.35;18.95;;;;;;;-144.32;100.00;68061.97;10426455;28;20053;-79
2022/12/09 21:46:36;;;;;;;35.35;20.25;;;;;;;-144.32;100.00;68061.97;10437347;28;20098;-79
2022/12/09 21:51:38;;;;;;;35.78;19.10;;;;;;;-144.32;100.00;68061.97;10443326;28;20045;-82
2022/12/09 21:56:39;;;;;;;39.30;21.08;;;;;;;-144.32;100.00;68061.97;10445014;28;20048;-82
2022/12/09 22:01:42;;;;;;;38.20;21.50;;;;;;;-144.32;100.00;68061.97;10435821;28;20036;-85
2022/12/09 22:06:48;;;;;;;38.03;21.80;;;;;;;-144.32;100.00;68061.97;10439256;28;20042;-85
2022/12/09 22:11:48;;;;;;;38.85;22.27;;;;;;;-144.32;100.00;68061.97;10440839;28;20041;-83
2022/12/09 22:16:49;;;;;;;37.22;20.98;;;;;;;-144.32;100.00;68061.97;10448818;28;20463;-85
2022/12/09 22:21:50;;;;;;;42.45;21.23;;;;;;;-144.32;100.00;68061.97;10459159;28;20037;-78
2022/12/09 22:26:52;;;;;;;42.75;21.63;;;;;;;-144.32;100.00;68061.97;10454350;28;20045;-85
2022/12/09 22:31:53;;;;;;;37.50;21.48;;;;;;;-144.32;100.00;68061.97;10447474;28;20055;-83
2022/12/09 22:36:54;;;;;;;36.97;21.55;;;;;;;-144.32;100.00;68061.97;10456975;28;20125;-83
2022/12/09 22:41:54;;;;;;;35.10;19.98;;;;;;;-144.32;100.00;68061.97;10476438;28;20041;-78